sensor_id;sensor_type;location;lat;lon;timestamp;pressure;altitude;pressure_sealevel;temperature;humidity
8653;BME280;4364;52.426;9.424;2024-01-30T00:00:47;102305.69;;;2.10;100.00
8653;BME280;4364;52.426;9.424;2024-01-30T00:03:13;102304.41;;;2.06;100.00
8653;BME280;4364;52.426;9.424;2024-01-30T00:05:40;102302.53;;;2.07;100.00
8653;BME280;4364;52.426;9.424;2024-01-30T00:08:06;102307.91;;;2.07;100.00
8653;BME280;4364;52.426;9.424;2024-01-30T00:10:33;102309.59;;;2.08;100.00
8653;BME280;4364;52.426;9.424;2024-01-30T00:12:59;102310.31;;;2.01;100.00
8653;BME280;4364;52.426;9.424;2024-01-30T00:15:26;102306.16;;;1.99;100.00
8653;BME280;4364;52.426;9.424;2024-01-30T00:17:52;102301.44;;;2.01;100.00
8653;BME280;4364;52.426;9.424;2024-01-30T00:20:20;102303.06;;;2.02;100.00
8653;BME280;4364;52.426;9.424;2024-01-30T00:22:47;102297.88;;;2.00;100.00
8653;BME280;4364;52.426;9.424;2024-01-30T00:25:13;102300.78;;;1.99;100.00
8653;BME280;4364;52.426;9.424;2024-01-30T00:27:40;102297.41;;;1.97;100.00
8653;BME280;4364;52.426;9.424;2024-01-30T00:30:07;102301.13;;;1.96;100.00
8653;BME280;4364;52.426;9.424;2024-01-30T00:32:34;102301.97;;;1.96;100.00
8653;BME280;4364;52.426;9.424;2024-01-30T00:35:01;102297.78;;;1.94;100.00
8653;BME280;4364;52.426;9.424;2024-01-30T00:37:28;102296.13;;;1.93;100.00
8653;BME280;4364;52.426;9.424;2024-01-30T00:39:54;102297.13;;;1.92;100.00
8653;BME280;4364;52.426;9.424;2024-01-30T00:42:21;102298.00;;;1.92;100.00
8653;BME280;4364;52.426;9.424;2024-01-30T00:44:50;102294.91;;;1.95;100.00
8653;BME280;4364;52.426;9.424;2024-01-30T00:47:16;102288.44;;;1.90;100.00
8653;BME280;4364;52.426;9.424;2024-01-30T00:49:42;102291.13;;;1.90;100.00
8653;BME280;4364;52.426;9.424;2024-01-30T00:52:09;102289.03;;;2.00;100.00
8653;BME280;4364;52.426;9.424;2024-01-30T00:54:36;102293.75;;;1.98;100.00
8653;BME280;4364;52.426;9.424;2024-01-30T00:57:03;102294.56;;;1.98;100.00
8653;BME280;4364;52.426;9.424;2024-01-30T00:59:30;102297.06;;;2.00;100.00
8653;BME280;4364;52.426;9.424;2024-01-30T01:01:56;102298.28;;;1.97;100.00
8653;BME280;4364;52.426;9.424;2024-01-30T01:04:23;102309.38;;;1.94;100.00
8653;BME280;4364;52.426;9.424;2024-01-30T01:06:50;102300.66;;;1.92;100.00
8653;BME280;4364;52.426;9.424;2024-01-30T01:09:16;102301.50;;;1.93;100.00
8653;BME280;4364;52.426;9.424;2024-01-30T01:11:43;102295.09;;;1.94;100.00
8653;BME280;4364;52.426;9.424;2024-01-30T01:14:09;102302.13;;;1.95;100.00
8653;BME280;4364;52.426;9.424;2024-01-30T01:16:36;102300.47;;;1.94;100.00
8653;BME280;4364;52.426;9.424;2024-01-30T01:19:03;102302.97;;;1.95;100.00
8653;BME280;4364;52.426;9.424;2024-01-30T01:21:31;102301.13;;;1.96;100.00
8653;BME280;4364;52.426;9.424;2024-01-30T01:23:57;102302.97;;;1.95;100.00
8653;BME280;4364;52.426;9.424;2024-01-30T01:26:24;102309.53;;;1.93;100.00
8653;BME280;4364;52.426;9.424;2024-01-30T01:28:50;102304.19;;;1.93;100.00
8653;BME280;4364;52.426;9.424;2024-01-30T01:31:17;102312.22;;;1.93;100.00
8653;BME280;4364;52.426;9.424;2024-01-30T01:33:44;102304.66;;;1.96;100.00
8653;BME280;4364;52.426;9.424;2024-01-30T01:36:11;102303.81;;;1.96;100.00
8653;BME280;4364;52.426;9.424;2024-01-30T01:38:37;102302.97;;;1.95;100.00
8653;BME280;4364;52.426;9.424;2024-01-30T01:41:04;102300.09;;;1.97;100.00
8653;BME280;4364;52.426;9.424;2024-01-30T01:43:30;102293.91;;;1.96;100.00
8653;BME280;4364;52.426;9.424;2024-01-30T01:45:57;102294.69;;;2.05;100.00
8653;BME280;4364;52.426;9.424;2024-01-30T01:48:24;102287.09;;;2.09;100.00
8653;BME280;4364;52.426;9.424;2024-01-30T01:50:51;102281.53;;;2.10;100.00
8653;BME280;4364;52.426;9.424;2024-01-30T01:53:18;102275.63;;;2.15;100.00
8653;BME280;4364;52.426;9.424;2024-01-30T01:55:45;102272.06;;;2.22;100.00
8653;BME280;4364;52.426;9.424;2024-01-30T01:58:12;102269.38;;;2.22;100.00
8653;BME280;4364;52.426;9.424;2024-01-30T02:00:39;102271.47;;;2.27;100.00
8653;BME280;4364;52.426;9.424;2024-01-30T02:03:10;102260.38;;;2.30;100.00
8653;BME280;4364;52.426;9.424;2024-01-30T02:05:38;102264.94;;;2.30;100.00
8653;BME280;4364;52.426;9.424;2024-01-30T02:08:06;102264.56;;;2.33;100.00
8653;BME280;4364;52.426;9.424;2024-01-30T02:10:33;102262.25;;;2.30;100.00
8653;BME280;4364;52.426;9.424;2024-01-30T02:13:00;102260.47;;;2.22;100.00
8653;BME280;4364;52.426;9.424;2024-01-30T02:15:26;102252.69;;;2.12;100.00
8653;BME280;4364;52.426;9.424;2024-01-30T02:17:53;102259.53;;;2.15;100.00
8653;BME280;4364;52.426;9.424;2024-01-30T02:20:19;102248.16;;;2.13;100.00
8653;BME280;4364;52.426;9.424;2024-01-30T02:22:46;102248.34;;;2.11;100.00
8653;BME280;4364;52.426;9.424;2024-01-30T02:25:13;102246.28;;;2.13;100.00
8653;BME280;4364;52.426;9.424;2024-01-30T02:27:39;102231.69;;;2.16;100.00
8653;BME280;4364;52.426;9.424;2024-01-30T02:30:06;102234.19;;;2.17;100.00
8653;BME280;4364;52.426;9.424;2024-01-30T02:32:33;102239.00;;;2.22;100.00
8653;BME280;4364;52.426;9.424;2024-01-30T02:34:59;102235.94;;;2.25;100.00
8653;BME280;4364;52.426;9.424;2024-01-30T02:37:26;102221.97;;;2.30;100.00
8653;BME280;4364;52.426;9.424;2024-01-30T02:39:52;102228.09;;;2.38;100.00
8653;BME280;4364;52.426;9.424;2024-01-30T02:42:19;102220.13;;;2.45;100.00
8653;BME280;4364;52.426;9.424;2024-01-30T02:44:45;102226.44;;;2.52;100.00
8653;BME280;4364;52.426;9.424;2024-01-30T02:47:12;102225.41;;;2.53;100.00
8653;BME280;4364;52.426;9.424;2024-01-30T02:49:38;102234.94;;;2.56;100.00
8653;BME280;4364;52.426;9.424;2024-01-30T02:52:05;102225.41;;;2.53;100.00
8653;BME280;4364;52.426;9.424;2024-01-30T02:54:32;102221.06;;;2.52;100.00
8653;BME280;4364;52.426;9.424;2024-01-30T02:56:58;102217.63;;;2.58;100.00
8653;BME280;4364;52.426;9.424;2024-01-30T02:59:24;102209.19;;;2.62;100.00
8653;BME280;4364;52.426;9.424;2024-01-30T03:01:51;102216.88;;;2.65;100.00
8653;BME280;4364;52.426;9.424;2024-01-30T03:04:17;102214.00;;;2.66;100.00
8653;BME280;4364;52.426;9.424;2024-01-30T03:06:45;102214.81;;;2.67;100.00
8653;BME280;4364;52.426;9.424;2024-01-30T03:09:13;102205.56;;;2.69;100.00
8653;BME280;4364;52.426;9.424;2024-01-30T03:11:40;102214.47;;;2.70;100.00
8653;BME280;4364;52.426;9.424;2024-01-30T03:14:06;102206.41;;;2.70;100.00
8653;BME280;4364;52.426;9.424;2024-01-30T03:16:34;102198.78;;;2.73;100.00
8653;BME280;4364;52.426;9.424;2024-01-30T03:19:01;102198.97;;;2.72;100.00
8653;BME280;4364;52.426;9.424;2024-01-30T03:21:28;102199.34;;;2.69;100.00
8653;BME280;4364;52.426;9.424;2024-01-30T03:23:55;102196.66;;;2.69;100.00
8653;BME280;4364;52.426;9.424;2024-01-30T03:26:21;102202.72;;;2.71;100.00
8653;BME280;4364;52.426;9.424;2024-01-30T03:28:47;102200.03;;;2.71;100.00
8653;BME280;4364;52.426;9.424;2024-01-30T03:31:15;102198.16;;;2.71;100.00
8653;BME280;4364;52.426;9.424;2024-01-30T03:33:42;102195.47;;;2.71;100.00
8653;BME280;4364;52.426;9.424;2024-01-30T03:36:09;102196.47;;;2.70;100.00
8653;BME280;4364;52.426;9.424;2024-01-30T03:38:35;102190.00;;;2.65;100.00
8653;BME280;4364;52.426;9.424;2024-01-30T03:41:02;102192.06;;;2.63;100.00
8653;BME280;4364;52.426;9.424;2024-01-30T03:43:29;102195.75;;;2.62;100.00
8653;BME280;4364;52.426;9.424;2024-01-30T03:45:55;102195.31;;;2.58;100.00
8653;BME280;4364;52.426;9.424;2024-01-30T03:48:22;102186.59;;;2.56;100.00
8653;BME280;4364;52.426;9.424;2024-01-30T03:50:48;102195.31;;;2.58;100.00
8653;BME280;4364;52.426;9.424;2024-01-30T03:53:15;102200.94;;;2.63;100.00
8653;BME280;4364;52.426;9.424;2024-01-30T03:55:41;102199.00;;;2.57;100.00
8653;BME280;4364;52.426;9.424;2024-01-30T03:58:08;102192.16;;;2.54;100.00
8653;BME280;4364;52.426;9.424;2024-01-30T04:00:34;102198.34;;;2.55;100.00
8653;BME280;4364;52.426;9.424;2024-01-30T04:03:01;102193.63;;;2.57;100.00
8653;BME280;4364;52.426;9.424;2024-01-30T04:05:28;102188.25;;;2.57;100.00
8653;BME280;4364;52.426;9.424;2024-01-30T04:07:55;102192.34;;;2.53;100.00
8653;BME280;4364;52.426;9.424;2024-01-30T04:10:21;102192.53;;;2.51;100.00
8653;BME280;4364;52.426;9.424;2024-01-30T04:12:48;102189.47;;;2.54;100.00
8653;BME280;4364;52.426;9.424;2024-01-30T04:15:14;102184.94;;;2.55;100.00
8653;BME280;4364;52.426;9.424;2024-01-30T04:17:40;102185.13;;;2.53;100.00
8653;BME280;4364;52.426;9.424;2024-01-30T04:20:07;102175.41;;;2.52;100.00
8653;BME280;4364;52.426;9.424;2024-01-30T04:22:34;102179.75;;;2.53;100.00
8653;BME280;4364;52.426;9.424;2024-01-30T04:25:00;102177.50;;;2.57;100.00
8653;BME280;4364;52.426;9.424;2024-01-30T04:27:27;102184.75;;;2.56;100.00
8653;BME280;4364;52.426;9.424;2024-01-30T04:29:54;102179.81;;;2.60;100.00
8653;BME280;4364;52.426;9.424;2024-01-30T04:32:20;102182.06;;;2.56;100.00
8653;BME280;4364;52.426;9.424;2024-01-30T04:34:47;102178.56;;;2.56;100.00
8653;BME280;4364;52.426;9.424;2024-01-30T04:37:13;102183.06;;;2.55;100.00
8653;BME280;4364;52.426;9.424;2024-01-30T04:39:40;102190.56;;;2.60;100.00
8653;BME280;4364;52.426;9.424;2024-01-30T04:42:07;102183.81;;;2.64;100.00
8653;BME280;4364;52.426;9.424;2024-01-30T04:44:35;102187.16;;;2.66;100.00
8653;BME280;4364;52.426;9.424;2024-01-30T04:47:03;102179.72;;;2.68;100.00
8653;BME280;4364;52.426;9.424;2024-01-30T04:49:31;102174.34;;;2.68;100.00
8653;BME280;4364;52.426;9.424;2024-01-30T04:51:58;102179.53;;;2.70;100.00
8653;BME280;4364;52.426;9.424;2024-01-30T04:54:25;102176.03;;;2.69;100.00
8653;BME280;4364;52.426;9.424;2024-01-30T04:56:52;102181.59;;;2.68;100.00
8653;BME280;4364;52.426;9.424;2024-01-30T04:59:18;102181.97;;;2.65;100.00
8653;BME280;4364;52.426;9.424;2024-01-30T05:01:45;102170.75;;;2.61;100.00
8653;BME280;4364;52.426;9.424;2024-01-30T05:04:11;102176.13;;;2.61;100.00
8653;BME280;4364;52.426;9.424;2024-01-30T05:06:42;102174.28;;;2.62;100.00
8653;BME280;4364;52.426;9.424;2024-01-30T05:09:09;102168.53;;;2.65;100.00
8653;BME280;4364;52.426;9.424;2024-01-30T05:11:42;102172.50;;;2.69;100.00
8653;BME280;4364;52.426;9.424;2024-01-30T05:14:08;102166.56;;;2.73;100.00
8653;BME280;4364;52.426;9.424;2024-01-30T05:16:35;102175.44;;;2.74;100.00
8653;BME280;4364;52.426;9.424;2024-01-30T05:19:01;102170.56;;;2.77;100.00
8653;BME280;4364;52.426;9.424;2024-01-30T05:21:29;102172.84;;;2.81;100.00
8653;BME280;4364;52.426;9.424;2024-01-30T05:23:55;102171.44;;;2.85;100.00
8653;BME280;4364;52.426;9.424;2024-01-30T05:26:22;102176.63;;;2.86;100.00
8653;BME280;4364;52.426;9.424;2024-01-30T05:28:49;102162.81;;;2.89;100.00
8653;BME280;4364;52.426;9.424;2024-01-30T05:31:15;102169.47;;;2.93;100.00
8653;BME280;4364;52.426;9.424;2024-01-30T05:33:42;102176.53;;;2.94;100.00
8653;BME280;4364;52.426;9.424;2024-01-30T05:36:11;102176.72;;;2.93;100.00
8653;BME280;4364;52.426;9.424;2024-01-30T05:38:38;102172.34;;;2.92;100.00
8653;BME280;4364;52.426;9.424;2024-01-30T05:41:05;102172.53;;;2.90;100.00
8653;BME280;4364;52.426;9.424;2024-01-30T05:43:32;102169.47;;;2.93;100.00
8653;BME280;4364;52.426;9.424;2024-01-30T05:45:58;102173.47;;;2.97;100.00
8653;BME280;4364;52.426;9.424;2024-01-30T05:48:25;102173.47;;;2.97;100.00
8653;BME280;4364;52.426;9.424;2024-01-30T05:50:51;102171.78;;;2.96;100.00
8653;BME280;4364;52.426;9.424;2024-01-30T05:53:18;102165.78;;;2.94;100.00
8653;BME280;4364;52.426;9.424;2024-01-30T05:55:45;102163.28;;;2.93;100.00
8653;BME280;4364;52.426;9.424;2024-01-30T05:58:11;102170.28;;;2.94;100.00
8653;BME280;4364;52.426;9.424;2024-01-30T06:00:38;102165.13;;;2.92;100.00
8653;BME280;4364;52.426;9.424;2024-01-30T06:03:04;102156.59;;;2.89;100.00
8653;BME280;4364;52.426;9.424;2024-01-30T06:05:31;102155.31;;;2.85;100.00
8653;BME280;4364;52.426;9.424;2024-01-30T06:07:57;102155.69;;;2.82;100.00
8653;BME280;4364;52.426;9.424;2024-01-30T06:10:24;102160.25;;;2.81;100.00
8653;BME280;4364;52.426;9.424;2024-01-30T06:12:51;102153.66;;;2.84;100.00
8653;BME280;4364;52.426;9.424;2024-01-30T06:15:17;102155.31;;;2.85;100.00
8653;BME280;4364;52.426;9.424;2024-01-30T06:17:44;102154.09;;;2.87;100.00
8653;BME280;4364;52.426;9.424;2024-01-30T06:20:10;102157.81;;;2.86;100.00
8653;BME280;4364;52.426;9.424;2024-01-30T06:22:37;102147.91;;;2.87;100.00
8653;BME280;4364;52.426;9.424;2024-01-30T06:25:04;102157.81;;;2.86;100.00
8653;BME280;4364;52.426;9.424;2024-01-30T06:27:30;102154.59;;;2.91;100.00
8653;BME280;4364;52.426;9.424;2024-01-30T06:29:57;102151.69;;;2.92;100.00
8653;BME280;4364;52.426;9.424;2024-01-30T06:32:23;102155.22;;;2.93;100.00
8653;BME280;4364;52.426;9.424;2024-01-30T06:34:50;102146.97;;;2.94;100.00
8653;BME280;4364;52.426;9.424;2024-01-30T06:37:16;102146.78;;;2.96;100.00
8653;BME280;4364;52.426;9.424;2024-01-30T06:39:43;102154.66;;;2.97;100.00
8653;BME280;4364;52.426;9.424;2024-01-30T06:42:10;102139.53;;;2.96;100.00
8653;BME280;4364;52.426;9.424;2024-01-30T06:44:38;102144.91;;;2.96;100.00
8653;BME280;4364;52.426;9.424;2024-01-30T06:47:04;102144.28;;;2.94;100.00
8653;BME280;4364;52.426;9.424;2024-01-30T06:49:31;102145.28;;;2.93;100.00
8653;BME280;4364;52.426;9.424;2024-01-30T06:51:58;102151.69;;;2.92;100.00
8653;BME280;4364;52.426;9.424;2024-01-30T06:54:24;102155.41;;;2.91;100.00
8653;BME280;4364;52.426;9.424;2024-01-30T06:56:51;102157.25;;;2.91;100.00
8653;BME280;4364;52.426;9.424;2024-01-30T06:59:17;102159.09;;;2.90;100.00
8653;BME280;4364;52.426;9.424;2024-01-30T07:01:44;102163.47;;;2.91;100.00
8653;BME280;4364;52.426;9.424;2024-01-30T07:04:10;102164.66;;;2.89;100.00
8653;BME280;4364;52.426;9.424;2024-01-30T07:06:37;102159.47;;;2.87;100.00
8653;BME280;4364;52.426;9.424;2024-01-30T07:09:04;102158.47;;;2.88;100.00
8653;BME280;4364;52.426;9.424;2024-01-30T07:11:31;102153.91;;;2.89;100.00
8653;BME280;4364;52.426;9.424;2024-01-30T07:13:58;102153.09;;;2.88;100.00
8653;BME280;4364;52.426;9.424;2024-01-30T07:16:25;102159.28;;;2.89;100.00
8653;BME280;4364;52.426;9.424;2024-01-30T07:18:51;102157.44;;;2.89;100.00
8653;BME280;4364;52.426;9.424;2024-01-30T07:21:18;102161.16;;;2.88;100.00
8653;BME280;4364;52.426;9.424;2024-01-30T07:23:45;102155.41;;;2.91;100.00
8653;BME280;4364;52.426;9.424;2024-01-30T07:26:11;102145.66;;;2.90;100.00
8653;BME280;4364;52.426;9.424;2024-01-30T07:28:38;102153.34;;;2.93;100.00
8653;BME280;4364;52.426;9.424;2024-01-30T07:31:04;102160.41;;;2.94;100.00
8653;BME280;4364;52.426;9.424;2024-01-30T07:33:32;102155.47;;;2.98;100.00
8653;BME280;4364;52.426;9.424;2024-01-30T07:35:59;102154.47;;;2.99;100.00
8653;BME280;4364;52.426;9.424;2024-01-30T07:38:26;102157.78;;;3.01;100.00
8653;BME280;4364;52.426;9.424;2024-01-30T07:40:52;102148.69;;;3.02;100.00
8653;BME280;4364;52.426;9.424;2024-01-30T07:43:19;102136.91;;;3.03;100.00
8653;BME280;4364;52.426;9.424;2024-01-30T07:45:46;102148.31;;;3.05;100.00
8653;BME280;4364;52.426;9.424;2024-01-30T07:48:13;102143.56;;;3.07;100.00
8653;BME280;4364;52.426;9.424;2024-01-30T07:50:40;102141.34;;;3.11;100.00
8653;BME280;4364;52.426;9.424;2024-01-30T07:53:07;102146.97;;;3.16;100.00
8653;BME280;4364;52.426;9.424;2024-01-30T07:55:33;102142.03;;;3.20;100.00
8653;BME280;4364;52.426;9.424;2024-01-30T07:58:00;102137.94;;;3.24;100.00
8653;BME280;4364;52.426;9.424;2024-01-30T08:00:28;102143.13;;;3.25;100.00
8653;BME280;4364;52.426;9.424;2024-01-30T08:02:55;102149.78;;;3.29;100.00
8653;BME280;4364;52.426;9.424;2024-01-30T08:05:22;102134.28;;;3.31;100.00
8653;BME280;4364;52.426;9.424;2024-01-30T08:07:50;102139.28;;;3.34;100.00
8653;BME280;4364;52.426;9.424;2024-01-30T08:10:17;102135.38;;;3.37;100.00
8653;BME280;4364;52.426;9.424;2024-01-30T08:12:46;102146.78;;;3.39;100.00
8653;BME280;4364;52.426;9.424;2024-01-30T08:15:13;102135.41;;;3.44;100.00
8653;BME280;4364;52.426;9.424;2024-01-30T08:17:40;102146.84;;;3.46;100.00
8653;BME280;4364;52.426;9.424;2024-01-30T08:20:07;102145.41;;;3.50;100.00
8653;BME280;4364;52.426;9.424;2024-01-30T08:22:39;102144.19;;;3.52;100.00
8653;BME280;4364;52.426;9.424;2024-01-30T08:25:07;102146.28;;;3.57;100.00
8653;BME280;4364;52.426;9.424;2024-01-30T08:27:34;102151.09;;;3.62;100.00
8653;BME280;4364;52.426;9.424;2024-01-30T08:30:02;102140.75;;;3.65;100.00
8653;BME280;4364;52.426;9.424;2024-01-30T08:32:29;102140.19;;;3.70;100.00
8653;BME280;4364;52.426;9.424;2024-01-30T08:34:55;102144.13;;;3.74;100.00
8653;BME280;4364;52.426;9.424;2024-01-30T08:37:22;102144.59;;;3.78;100.00
8653;BME280;4364;52.426;9.424;2024-01-30T08:39:49;102139.06;;;3.86;100.00
8653;BME280;4364;52.426;9.424;2024-01-30T08:42:15;102137.44;;;3.92;100.00
8653;BME280;4364;52.426;9.424;2024-01-30T08:44:44;102135.19;;;3.95;100.00
8653;BME280;4364;52.426;9.424;2024-01-30T08:47:11;102127.72;;;3.97;100.00
8653;BME280;4364;52.426;9.424;2024-01-30T08:49:37;102127.16;;;4.02;100.00
8653;BME280;4364;52.426;9.424;2024-01-30T08:52:04;102126.13;;;4.03;100.00
8653;BME280;4364;52.426;9.424;2024-01-30T08:54:30;102131.31;;;4.04;100.00
8653;BME280;4364;52.426;9.424;2024-01-30T08:57:03;102132.38;;;4.10;100.00
8653;BME280;4364;52.426;9.424;2024-01-30T08:59:30;102134.47;;;4.15;100.00
8653;BME280;4364;52.426;9.424;2024-01-30T09:01:56;102124.94;;;4.19;100.00
8653;BME280;4364;52.426;9.424;2024-01-30T09:04:37;102127.47;;;4.27;100.00
8653;BME280;4364;52.426;9.424;2024-01-30T09:07:05;102120.88;;;4.30;100.00
8653;BME280;4364;52.426;9.424;2024-01-30T09:09:37;102131.03;;;4.34;100.00
8653;BME280;4364;52.426;9.424;2024-01-30T09:12:03;102122.16;;;4.40;100.00
8653;BME280;4364;52.426;9.424;2024-01-30T09:14:33;102122.19;;;4.47;100.00
8653;BME280;4364;52.426;9.424;2024-01-30T09:17:00;102122.22;;;4.54;100.00
8653;BME280;4364;52.426;9.424;2024-01-30T09:19:26;102132.00;;;4.61;100.00
8653;BME280;4364;52.426;9.424;2024-01-30T09:21:53;102132.22;;;4.67;100.00
8653;BME280;4364;52.426;9.424;2024-01-30T09:24:19;102133.06;;;4.74;100.00
8653;BME280;4364;52.426;9.424;2024-01-30T09:26:46;102141.34;;;4.79;100.00
8653;BME280;4364;52.426;9.424;2024-01-30T09:29:12;102135.56;;;4.82;100.00
8653;BME280;4364;52.426;9.424;2024-01-30T09:31:39;102146.16;;;4.90;100.00
8653;BME280;4364;52.426;9.424;2024-01-30T09:34:05;102148.25;;;4.95;100.00
8653;BME280;4364;52.426;9.424;2024-01-30T09:36:32;102144.09;;;4.99;100.00
8653;BME280;4364;52.426;9.424;2024-01-30T09:38:59;102144.97;;;5.06;100.00
8653;BME280;4364;52.426;9.424;2024-01-30T09:41:27;102142.06;;;5.14;100.00
8653;BME280;4364;52.426;9.424;2024-01-30T09:43:54;102131.72;;;5.18;100.00
8653;BME280;4364;52.426;9.424;2024-01-30T09:46:26;102145.00;;;5.26;100.00
8653;BME280;4364;52.426;9.424;2024-01-30T09:48:55;102138.97;;;5.44;100.00
8653;BME280;4364;52.426;9.424;2024-01-30T09:51:25;102131.94;;;5.50;100.00
8653;BME280;4364;52.426;9.424;2024-01-30T09:53:53;102143.13;;;5.53;100.00
8653;BME280;4364;52.426;9.424;2024-01-30T09:56:20;102134.81;;;5.62;100.00
8653;BME280;4364;52.426;9.424;2024-01-30T09:58:47;102130.03;;;5.70;100.00
8653;BME280;4364;52.426;9.424;2024-01-30T10:01:15;102130.44;;;5.81;100.00
8653;BME280;4364;52.426;9.424;2024-01-30T10:03:45;102121.91;;;5.90;100.00
8653;BME280;4364;52.426;9.424;2024-01-30T10:06:12;102127.34;;;5.97;100.00
8653;BME280;4364;52.426;9.424;2024-01-30T10:08:38;102129.59;;;6.07;100.00
8653;BME280;4364;52.426;9.424;2024-01-30T10:11:05;102131.66;;;6.11;100.00
8653;BME280;4364;52.426;9.424;2024-01-30T10:13:32;102128.50;;;6.21;100.00
8653;BME280;4364;52.426;9.424;2024-01-30T10:16:00;102118.13;;;6.25;100.00
8653;BME280;4364;52.426;9.424;2024-01-30T10:18:28;102126.22;;;6.32;100.00
8653;BME280;4364;52.426;9.424;2024-01-30T10:20:54;102122.59;;;6.44;100.00
8653;BME280;4364;52.426;9.424;2024-01-30T10:23:21;102118.03;;;6.52;100.00
8653;BME280;4364;52.426;9.424;2024-01-30T10:25:47;102122.94;;;6.61;100.00
8653;BME280;4364;52.426;9.424;2024-01-30T10:28:14;102113.16;;;6.67;100.00
8653;BME280;4364;52.426;9.424;2024-01-30T10:30:40;102111.84;;;6.76;100.00
8653;BME280;4364;52.426;9.424;2024-01-30T10:33:07;102113.66;;;6.89;100.00
8653;BME280;4364;52.426;9.424;2024-01-30T10:35:34;102118.38;;;7.00;100.00
8653;BME280;4364;52.426;9.424;2024-01-30T10:38:01;102123.47;;;7.15;100.00
8653;BME280;4364;52.426;9.424;2024-01-30T10:40:29;102111.31;;;7.24;100.00
8653;BME280;4364;52.426;9.424;2024-01-30T10:42:55;102120.19;;;7.38;100.00
8653;BME280;4364;52.426;9.424;2024-01-30T10:45:23;102099.34;;;7.39;100.00
8653;BME280;4364;52.426;9.424;2024-01-30T10:47:55;102098.22;;;7.47;100.00
8653;BME280;4364;52.426;9.424;2024-01-30T10:50:24;102113.75;;;7.58;100.00
8653;BME280;4364;52.426;9.424;2024-01-30T10:52:52;102114.97;;;7.62;100.00
8653;BME280;4364;52.426;9.424;2024-01-30T10:55:19;102107.88;;;7.61;100.00
8653;BME280;4364;52.426;9.424;2024-01-30T10:57:46;102108.53;;;7.56;100.00
8653;BME280;4364;52.426;9.424;2024-01-30T11:00:13;102103.75;;;7.58;100.00
8653;BME280;4364;52.426;9.424;2024-01-30T11:02:45;102099.09;;;7.66;100.00
8653;BME280;4364;52.426;9.424;2024-01-30T11:05:12;102096.56;;;7.71;100.00
8653;BME280;4364;52.426;9.424;2024-01-30T11:07:40;102097.47;;;7.83;99.45
8653;BME280;4364;52.426;9.424;2024-01-30T11:10:11;102091.00;;;7.84;99.21
8653;BME280;4364;52.426;9.424;2024-01-30T11:12:41;102093.50;;;7.86;98.54
8653;BME280;4364;52.426;9.424;2024-01-30T11:15:12;102097.53;;;7.95;97.83
8653;BME280;4364;52.426;9.424;2024-01-30T11:20:26;102091.16;;;7.89;98.74
8653;BME280;4364;52.426;9.424;2024-01-30T11:22:54;102099.94;;;8.03;97.69
8653;BME280;4364;52.426;9.424;2024-01-30T11:25:23;102091.38;;;8.06;97.22
8653;BME280;4364;52.426;9.424;2024-01-30T11:27:52;102090.19;;;8.02;98.30
8653;BME280;4364;52.426;9.424;2024-01-30T11:30:25;102086.41;;;8.03;98.35
8653;BME280;4364;52.426;9.424;2024-01-30T11:32:59;102089.19;;;8.15;98.42
8653;BME280;4364;52.426;9.424;2024-01-30T11:35:26;102077.50;;;8.33;97.14
8653;BME280;4364;52.426;9.424;2024-01-30T11:37:54;102079.72;;;8.43;96.44
8653;BME280;4364;52.426;9.424;2024-01-30T11:40:21;102072.53;;;8.48;96.23
8653;BME280;4364;52.426;9.424;2024-01-30T11:42:48;102066.38;;;8.71;95.42
8653;BME280;4364;52.426;9.424;2024-01-30T11:45:15;102059.34;;;8.82;94.72
8653;BME280;4364;52.426;9.424;2024-01-30T11:47:42;102051.13;;;8.89;94.94
8653;BME280;4364;52.426;9.424;2024-01-30T11:50:10;102048.06;;;8.97;94.96
8653;BME280;4364;52.426;9.424;2024-01-30T11:52:37;102046.06;;;9.16;93.52
8653;BME280;4364;52.426;9.424;2024-01-30T11:55:04;102041.59;;;9.22;92.56
8653;BME280;4364;52.426;9.424;2024-01-30T11:57:31;102044.19;;;9.28;92.50
8653;BME280;4364;52.426;9.424;2024-01-30T11:59:57;102051.28;;;9.30;91.88
8653;BME280;4364;52.426;9.424;2024-01-30T12:02:24;102058.84;;;9.27;92.40
8653;BME280;4364;52.426;9.424;2024-01-30T12:04:50;102058.59;;;9.53;91.01
8653;BME280;4364;52.426;9.424;2024-01-30T12:07:16;102059.66;;;9.40;91.33
8653;BME280;4364;52.426;9.424;2024-01-30T12:09:52;102070.88;;;9.43;91.90
8653;BME280;4364;52.426;9.424;2024-01-30T12:12:22;102073.00;;;9.53;90.32
8653;BME280;4364;52.426;9.424;2024-01-30T12:14:48;102072.16;;;9.76;88.93
8653;BME280;4364;52.426;9.424;2024-01-30T12:17:29;102077.38;;;9.78;88.64
8653;BME280;4364;52.426;9.424;2024-01-30T12:20:06;102074.28;;;9.86;89.30
8653;BME280;4364;52.426;9.424;2024-01-30T12:22:36;102076.19;;;9.86;88.99
8653;BME280;4364;52.426;9.424;2024-01-30T12:25:14;102072.50;;;9.80;88.92
8653;BME280;4364;52.426;9.424;2024-01-30T12:27:45;102071.09;;;9.89;88.83
8653;BME280;4364;52.426;9.424;2024-01-30T12:30:13;102080.66;;;9.80;88.98
8653;BME280;4364;52.426;9.424;2024-01-30T12:32:41;102080.69;;;9.68;90.21
8653;BME280;4364;52.426;9.424;2024-01-30T12:35:12;102072.19;;;9.64;90.74
8653;BME280;4364;52.426;9.424;2024-01-30T12:37:40;102076.69;;;9.59;91.08
8653;BME280;4364;52.426;9.424;2024-01-30T12:40:07;102082.94;;;9.59;92.11
8653;BME280;4364;52.426;9.424;2024-01-30T12:42:35;102075.38;;;9.61;92.48
8653;BME280;4364;52.426;9.424;2024-01-30T12:45:03;102075.34;;;9.73;92.67
8653;BME280;4364;52.426;9.424;2024-01-30T12:47:30;102072.75;;;9.78;93.49
8653;BME280;4364;52.426;9.424;2024-01-30T12:49:56;102072.63;;;9.85;93.77
8653;BME280;4364;52.426;9.424;2024-01-30T12:52:23;102059.63;;;9.99;93.95
8653;BME280;4364;52.426;9.424;2024-01-30T12:54:51;102056.97;;;10.16;93.81
8653;BME280;4364;52.426;9.424;2024-01-30T12:57:18;102061.06;;;10.30;93.07
8653;BME280;4364;52.426;9.424;2024-01-30T12:59:45;102079.09;;;10.48;92.02
8653;BME280;4364;52.426;9.424;2024-01-30T13:02:13;102078.41;;;10.53;91.61
8653;BME280;4364;52.426;9.424;2024-01-30T13:04:40;102073.19;;;10.51;92.00
8653;BME280;4364;52.426;9.424;2024-01-30T13:07:06;102066.19;;;10.55;91.36
8653;BME280;4364;52.426;9.424;2024-01-30T13:09:33;102073.53;;;10.55;92.05
8653;BME280;4364;52.426;9.424;2024-01-30T13:12:00;102081.34;;;10.51;92.16
8653;BME280;4364;52.426;9.424;2024-01-30T13:14:27;102087.84;;;10.50;92.69